This is the latest recevied weather packets stored in our database for station/object WK7G. If no packets are shown the sender has not sent any weather packets the latest 10 day(s).
| Time | Temp. | Humidity | Pressure | Rain* | Wind** | Luminosity | Snow |
|---|---|---|---|---|---|---|---|
| 1777224033 | 5° C | 73% | 995.5 hPa | 0 mm | - | 527 W/m² | - |
| 1777218881 | 2.78° C | 78% | 995.6 hPa | 0 mm | - | 191 W/m² | - |
| 1777217974 | 2.78° C | 81% | 995.8 hPa | 0 mm | - | 209 W/m² | - |
| 1777217366 | 2.22° C | 81% | 995.9 hPa | 0 mm | - | 164 W/m² | - |
| 1777217062 | 2.22° C | 82% | 995.8 hPa | 0 mm | - | 145 W/m² | - |
| 1777216455 | 2.22° C | 80% | 996.1 hPa | 0 mm | - | 110 W/m² | - |
| 1777214031 | 2.78° C | 74% | 996.2 hPa | 0 mm | - | 85 W/m² | - |
| 1777213725 | 2.22° C | 76% | 996.4 hPa | 0 mm | - | 72 W/m² | - |
| 1777212816 | 2.22° C | 77% | 996.4 hPa | 0 mm | - | 56 W/m² | - |
| 1777212212 | 1.67° C | 77% | 996.6 hPa | 0 mm | - | 53 W/m² | - |
| 1777211907 | 2.22° C | 77% | 996.5 hPa | 0 mm | - | 41 W/m² | - |
| 1777210694 | 2.22° C | 75% | 996.6 hPa | 0 mm | - | 26 W/m² | - |
| 1777210086 | 2.22° C | 71% | 996.7 hPa | 0 mm | - | 31 W/m² | - |
| 1777209477 | 2.22° C | 71% | 996.6 hPa | 0 mm | - | 28 W/m² | - |
| 1777209174 | 2.22° C | 69% | 996.6 hPa | 0 mm | - | 26 W/m² | - |
| 1777208870 | 2.22° C | 68% | 996.5 hPa | 0 mm | - | 19 W/m² | - |
| 1777208567 | 2.78° C | 66% | 996.8 hPa | 0 mm | - | 18 W/m² | - |
| 1777207050 | 2.22° C | 68% | 996.2 hPa | 0 mm | - | 2 W/m² | - |
| 1777206747 | 1.67° C | 69% | 996.1 hPa | 0 mm | - | 1 W/m² | - |
| 1777206441 | 0.56° C | 75% | 996.2 hPa | 0 mm | - | 0 W/m² | - |
| 1777206141 | 0° C | 77% | 996.2 hPa | 0 mm | - | 0 W/m² | - |
| 1777205838 | 0° C | 78% | 996.4 hPa | 0 mm | - | 0 W/m² | - |
| 1777205534 | 0° C | 78% | 996.7 hPa | 0 mm | - | 0 W/m² | - |
| 1777205231 | 0° C | 78% | 996.2 hPa | 0 mm | - | 0 W/m² | - |
| 1777203715 | -0.56° C | 80% | 996.4 hPa | 0 mm | - | 0 W/m² | - |
* Rain latest hour (hover to see other rain measurements)
** Current wind speed in m/s (hover to see current wind gust speed)